PWSweather.com
Personal Weather Stations
Station Observations
KCOBLACK1
Chalet Park, Black Hawk, CO 80422

Chalet ParkBlack Hawk, CO 80422

Lat: 39.8294, Lon: -105.48

Elevation: 9370

Station Type: Vantage Pro2

http://www.oscaranddeb.com/weather

Latest ConditionsUpdated 6:15:00 AM MDT Thursday, Jun 29, 2017
Currently Today's Max Today's Min Today's Average
Temperature 52.6°F11.4°C 57.5°F14.2°C 50.2°F10.1°C 52.0°F11.1°C
Dew Point 29.6°F-1.3°C 33.8°F1.0°C 26.3°F-3.2°C 31.3°F-0.4°C
Winds 1.2 mph WSW1.9 kmh WSW 6.1 mph NE9.8 kmh NE - 2.6 mph 4.2 kmh
Wind Gusts 3.0 mph4.8 kmh 11.0 mph17.7 kmh - -
Humidity 41% 53% 30% 45%
Pressure 29.56 in1001.0 mb 29.56 in1001.0 mb 29.53 in1000.0 mb -
Hour Temp Dew Point Humidity Winds Wind Gusts Pressure Precip Precip Rate Daily Precip Total
06:15 AM 52.6°F11.4°C 29.6°F-1.3°C 41% 1.2 mph WSW1.9 kmh WSW 3.0 mph4.8 kmh 29.56 in1001.0 mb 0.00 in0.0 mm 0.00 in0.0 mm 0.00 in0.0 mm
06:10 AM 52.3°F11.3°C 29.9°F-1.2°C 42% Calm Calm 2.0 mph3.2 kmh 29.56 in1001.0 mb 0.00 in0.0 mm 0.00 in0.0 mm 0.00 in0.0 mm
06:05 AM 52.2°F11.2°C 30.4°F-0.9°C 43% 0.6 mph S1.0 kmh S 2.0 mph3.2 kmh 29.56 in1001.0 mb 0.00 in0.0 mm 0.00 in0.0 mm 0.00 in0.0 mm
06:00 AM 52.1°F11.2°C 30.3°F-0.9°C 43% 0.2 mph S0.3 kmh S 2.0 mph3.2 kmh 29.56 in1001.0 mb 0.00 in0.0 mm 0.00 in0.0 mm 0.00 in0.0 mm
05:55 AM 52.1°F11.2°C 30.3°F-0.9°C 43% 0.3 mph S0.5 kmh S 2.0 mph3.2 kmh 29.56 in1001.0 mb 0.00 in0.0 mm 0.00 in0.0 mm 0.00 in0.0 mm
05:50 AM 52.0°F11.1°C 30.2°F-1.0°C 43% 0.7 mph S1.1 kmh S 3.0 mph4.8 kmh 29.56 in1001.0 mb 0.00 in0.0 mm 0.00 in0.0 mm 0.00 in0.0 mm
05:45 AM 51.8°F11.0°C 30.0°F-1.1°C 43% 2.1 mph S3.4 kmh S 3.0 mph4.8 kmh 29.56 in1001.0 mb 0.00 in0.0 mm 0.00 in0.0 mm 0.00 in0.0 mm
05:40 AM 51.6°F10.9°C 30.4°F-0.9°C 44% 1.1 mph S1.8 kmh S 3.0 mph4.8 kmh 29.56 in1001.0 mb 0.00 in0.0 mm 0.00 in0.0 mm 0.00 in0.0 mm
05:35 AM 51.5°F10.8°C 30.3°F-0.9°C 44% 0.7 mph SW1.1 kmh SW 2.0 mph3.2 kmh 29.56 in1001.0 mb 0.00 in0.0 mm 0.00 in0.0 mm 0.00 in0.0 mm
05:30 AM 51.3°F10.7°C 30.7°F-0.7°C 45% 1.1 mph SW1.8 kmh SW 4.0 mph6.4 kmh 29.55 in1000.7 mb 0.00 in0.0 mm 0.00 in0.0 mm 0.00 in0.0 mm
05:25 AM 51.0°F10.6°C 31.0°F-0.6°C 46% 2.6 mph S4.2 kmh S 4.0 mph6.4 kmh 29.55 in1000.7 mb 0.00 in0.0 mm 0.00 in0.0 mm 0.00 in0.0 mm
05:20 AM 50.9°F10.5°C 30.9°F-0.6°C 46% 1.6 mph SW2.6 kmh SW 4.0 mph6.4 kmh 29.55 in1000.7 mb 0.00 in0.0 mm 0.00 in0.0 mm 0.00 in0.0 mm
05:15 AM 50.8°F10.4°C 30.8°F-0.7°C 46% 2.4 mph SW3.9 kmh SW 4.0 mph6.4 kmh 29.55 in1000.7 mb 0.00 in0.0 mm 0.00 in0.0 mm 0.00 in0.0 mm
05:10 AM 50.6°F10.3°C 31.1°F-0.5°C 47% 2.2 mph SW3.5 kmh SW 4.0 mph6.4 kmh 29.55 in1000.7 mb 0.00 in0.0 mm 0.00 in0.0 mm 0.00 in0.0 mm
05:05 AM 50.4°F10.2°C 30.9°F-0.6°C 47% 3.1 mph SSW5.0 kmh SSW 4.0 mph6.4 kmh 29.55 in1000.7 mb 0.00 in0.0 mm 0.00 in0.0 mm 0.00 in0.0 mm
05:00 AM 50.5°F10.3°C 31.5°F-0.3°C 48% 2.6 mph SSW4.2 kmh SSW 7.0 mph11.3 kmh 29.54 in1000.3 mb 0.00 in0.0 mm 0.00 in0.0 mm 0.00 in0.0 mm
04:55 AM 50.4°F10.2°C 31.5°F-0.3°C 48% 3.9 mph S6.3 kmh S 7.0 mph11.3 kmh 29.54 in1000.3 mb 0.00 in0.0 mm 0.00 in0.0 mm 0.00 in0.0 mm
04:50 AM 50.3°F10.2°C 31.4°F-0.3°C 48% 2.6 mph SW4.2 kmh SW 6.0 mph9.7 kmh 29.54 in1000.3 mb 0.00 in0.0 mm 0.00 in0.0 mm 0.00 in0.0 mm
04:45 AM 50.2°F10.1°C 31.8°F-0.1°C 49% 2.2 mph SSW3.5 kmh SSW 5.0 mph8.0 kmh 29.54 in1000.3 mb 0.00 in0.0 mm 0.00 in0.0 mm 0.00 in0.0 mm
04:40 AM 50.4°F10.2°C 31.5°F-0.3°C 48% 2.5 mph SSW4.0 kmh SSW 5.0 mph8.0 kmh 29.54 in1000.3 mb 0.00 in0.0 mm 0.00 in0.0 mm 0.00 in0.0 mm
04:35 AM 50.8°F10.4°C 31.8°F-0.1°C 48% 2.6 mph SSW4.2 kmh SSW 5.0 mph8.0 kmh 29.54 in1000.3 mb 0.00 in0.0 mm 0.00 in0.0 mm 0.00 in0.0 mm
04:30 AM 50.9°F10.5°C 31.9°F-0.1°C 48% 2.9 mph SW4.7 kmh SW 5.0 mph8.0 kmh 29.54 in1000.3 mb 0.00 in0.0 mm 0.00 in0.0 mm 0.00 in0.0 mm
04:25 AM 51.0°F10.6°C 32.5°F0.3°C 49% 3.8 mph SW6.1 kmh SW 5.0 mph8.0 kmh 29.54 in1000.3 mb 0.00 in0.0 mm 0.00 in0.0 mm 0.00 in0.0 mm
04:20 AM 51.0°F10.6°C 32.5°F0.3°C 49% 3.0 mph SSW4.8 kmh SSW 5.0 mph8.0 kmh 29.54 in1000.3 mb 0.00 in0.0 mm 0.00 in0.0 mm 0.00 in0.0 mm
04:15 AM 51.0°F10.6°C 33.0°F0.6°C 50% 3.5 mph SSW5.6 kmh SSW 6.0 mph9.7 kmh 29.53 in1000.0 mb 0.00 in0.0 mm 0.00 in0.0 mm 0.00 in0.0 mm
04:10 AM 51.0°F10.6°C 33.5°F0.8°C 51% 3.8 mph S6.1 kmh S 6.0 mph9.7 kmh 29.54 in1000.3 mb 0.00 in0.0 mm 0.00 in0.0 mm 0.00 in0.0 mm
04:05 AM 51.1°F10.6°C 33.1°F0.6°C 50% 3.6 mph SSW5.8 kmh SSW 5.0 mph8.0 kmh 29.54 in1000.3 mb 0.00 in0.0 mm 0.00 in0.0 mm 0.00 in0.0 mm
04:00 AM 51.2°F10.7°C 33.2°F0.7°C 50% 3.5 mph S5.6 kmh S 7.0 mph11.3 kmh 29.54 in1000.3 mb 0.00 in0.0 mm 0.00 in0.0 mm 0.00 in0.0 mm
03:55 AM 51.4°F10.8°C 32.9°F0.5°C 49% 4.0 mph S6.4 kmh S 7.0 mph11.3 kmh 29.54 in1000.3 mb 0.00 in0.0 mm 0.00 in0.0 mm 0.00 in0.0 mm
03:50 AM 51.5°F10.8°C 33.0°F0.6°C 49% 3.1 mph SSW5.0 kmh SSW 4.0 mph6.4 kmh 29.54 in1000.3 mb 0.00 in0.0 mm 0.00 in0.0 mm 0.00 in0.0 mm
03:45 AM 51.4°F10.8°C 32.9°F0.5°C 49% 2.4 mph SSW3.9 kmh SSW 4.0 mph6.4 kmh 29.54 in1000.3 mb 0.00 in0.0 mm 0.00 in0.0 mm 0.00 in0.0 mm
03:40 AM 51.3°F10.7°C 32.8°F0.4°C 49% 2.0 mph S3.2 kmh S 3.0 mph4.8 kmh 29.55 in1000.7 mb 0.00 in0.0 mm 0.00 in0.0 mm 0.00 in0.0 mm
03:35 AM 51.2°F10.7°C 32.7°F0.4°C 49% 1.3 mph SSW2.1 kmh SSW 3.0 mph4.8 kmh 29.55 in1000.7 mb 0.00 in0.0 mm 0.00 in0.0 mm 0.00 in0.0 mm
03:30 AM 51.3°F10.7°C 32.8°F0.4°C 49% 1.0 mph SSW1.6 kmh SSW 2.0 mph3.2 kmh 29.55 in1000.7 mb 0.00 in0.0 mm 0.00 in0.0 mm 0.00 in0.0 mm
03:25 AM 51.3°F10.7°C 32.3°F0.2°C 48% 1.0 mph SSW1.6 kmh SSW 2.0 mph3.2 kmh 29.55 in1000.7 mb 0.00 in0.0 mm 0.00 in0.0 mm 0.00 in0.0 mm
03:20 AM 51.3°F10.7°C 32.8°F0.4°C 49% 1.0 mph SSW1.6 kmh SSW 3.0 mph4.8 kmh 29.55 in1000.7 mb 0.00 in0.0 mm 0.00 in0.0 mm 0.00 in0.0 mm
03:15 AM 51.4°F10.8°C 32.9°F0.5°C 49% 1.0 mph SSW1.6 kmh SSW 3.0 mph4.8 kmh 29.55 in1000.7 mb 0.00 in0.0 mm 0.00 in0.0 mm 0.00 in0.0 mm
03:10 AM 51.4°F10.8°C 32.9°F0.5°C 49% 1.0 mph SW1.6 kmh SW 3.0 mph4.8 kmh 29.55 in1000.7 mb 0.00 in0.0 mm 0.00 in0.0 mm 0.00 in0.0 mm
03:05 AM 51.3°F10.7°C 32.8°F0.4°C 49% 1.1 mph SSW1.8 kmh SSW 2.0 mph3.2 kmh 29.55 in1000.7 mb 0.00 in0.0 mm 0.00 in0.0 mm 0.00 in0.0 mm
03:00 AM 51.2°F10.7°C 32.7°F0.4°C 49% 1.0 mph SSW1.6 kmh SSW 2.0 mph3.2 kmh 29.55 in1000.7 mb 0.00 in0.0 mm 0.00 in0.0 mm 0.00 in0.0 mm
02:55 AM 51.2°F10.7°C 31.7°F-0.2°C 47% 0.4 mph S0.6 kmh S 2.0 mph3.2 kmh 29.55 in1000.7 mb 0.00 in0.0 mm 0.00 in0.0 mm 0.00 in0.0 mm
02:50 AM 51.3°F10.7°C 31.8°F-0.1°C 47% 0.6 mph S1.0 kmh S 2.0 mph3.2 kmh 29.56 in1001.0 mb 0.00 in0.0 mm 0.00 in0.0 mm 0.00 in0.0 mm
02:45 AM 51.2°F10.7°C 31.7°F-0.2°C 47% 0.3 mph S0.5 kmh S 2.0 mph3.2 kmh 29.55 in1000.7 mb 0.00 in0.0 mm 0.00 in0.0 mm 0.00 in0.0 mm
02:40 AM 51.2°F10.7°C 31.7°F-0.2°C 47% 0.7 mph S1.1 kmh S 2.0 mph3.2 kmh 29.55 in1000.7 mb 0.00 in0.0 mm 0.00 in0.0 mm 0.00 in0.0 mm
02:35 AM 51.2°F10.7°C 31.7°F-0.2°C 47% 0.5 mph S0.8 kmh S 3.0 mph4.8 kmh 29.55 in1000.7 mb 0.00 in0.0 mm 0.00 in0.0 mm 0.00 in0.0 mm
02:30 AM 51.2°F10.7°C 33.2°F0.7°C 50% 1.6 mph S2.6 kmh S 4.0 mph6.4 kmh 29.55 in1000.7 mb 0.00 in0.0 mm 0.00 in0.0 mm 0.00 in0.0 mm
02:25 AM 51.0°F10.6°C 33.5°F0.8°C 51% 2.2 mph S3.5 kmh S 4.0 mph6.4 kmh 29.56 in1001.0 mb 0.00 in0.0 mm 0.00 in0.0 mm 0.00 in0.0 mm
02:20 AM 50.8°F10.4°C 33.3°F0.7°C 51% 1.0 mph S1.6 kmh S 2.0 mph3.2 kmh 29.55 in1000.7 mb 0.00 in0.0 mm 0.00 in0.0 mm 0.00 in0.0 mm
02:15 AM 50.6°F10.3°C 32.7°F0.4°C 50% 0.2 mph S0.3 kmh S 3.0 mph4.8 kmh 29.56 in1001.0 mb 0.00 in0.0 mm 0.00 in0.0 mm 0.00 in0.0 mm
02:10 AM 50.5°F10.3°C 32.6°F0.3°C 50% 1.5 mph S2.4 kmh S 3.0 mph4.8 kmh 29.56 in1001.0 mb 0.00 in0.0 mm 0.00 in0.0 mm 0.00 in0.0 mm
02:05 AM 50.3°F10.2°C 33.4°F0.8°C 52% 2.2 mph S3.5 kmh S 4.0 mph6.4 kmh 29.56 in1001.0 mb 0.00 in0.0 mm 0.00 in0.0 mm 0.00 in0.0 mm
02:00 AM 50.3°F10.2°C 33.8°F1.0°C 53% 0.5 mph E0.8 kmh E 6.0 mph9.7 kmh 29.56 in1001.0 mb 0.00 in0.0 mm 0.00 in0.0 mm 0.00 in0.0 mm
01:55 AM 50.4°F10.2°C 33.4°F0.8°C 52% 2.7 mph ENE4.3 kmh ENE 7.0 mph11.3 kmh 29.56 in1001.0 mb 0.00 in0.0 mm 0.00 in0.0 mm 0.00 in0.0 mm
01:50 AM 50.4°F10.2°C 33.0°F0.6°C 51% 4.3 mph ENE6.9 kmh ENE 7.0 mph11.3 kmh 29.55 in1000.7 mb 0.00 in0.0 mm 0.00 in0.0 mm 0.00 in0.0 mm
01:45 AM 50.5°F10.3°C 32.6°F0.3°C 50% 4.2 mph ENE6.8 kmh ENE 9.0 mph14.5 kmh 29.55 in1000.7 mb 0.00 in0.0 mm 0.00 in0.0 mm 0.00 in0.0 mm
01:40 AM 50.7°F10.4°C 32.2°F0.1°C 49% 4.5 mph ENE7.2 kmh ENE 9.0 mph14.5 kmh 29.55 in1000.7 mb 0.00 in0.0 mm 0.00 in0.0 mm 0.00 in0.0 mm
01:35 AM 50.8°F10.4°C 31.3°F-0.4°C 47% 4.4 mph NE7.1 kmh NE 8.0 mph12.9 kmh 29.55 in1000.7 mb 0.00 in0.0 mm 0.00 in0.0 mm 0.00 in0.0 mm
01:30 AM 51.0°F10.6°C 31.0°F-0.6°C 46% 4.9 mph NE7.9 kmh NE 8.0 mph12.9 kmh 29.56 in1001.0 mb 0.00 in0.0 mm 0.00 in0.0 mm 0.00 in0.0 mm
01:25 AM 51.3°F10.7°C 31.2°F-0.4°C 46% 4.7 mph NE7.6 kmh NE 8.0 mph12.9 kmh 29.56 in1001.0 mb 0.00 in0.0 mm 0.00 in0.0 mm 0.00 in0.0 mm
01:20 AM 51.5°F10.8°C 31.4°F-0.3°C 46% 4.7 mph NE7.6 kmh NE 9.0 mph14.5 kmh 29.56 in1001.0 mb 0.00 in0.0 mm 0.00 in0.0 mm 0.00 in0.0 mm
01:15 AM 51.7°F10.9°C 31.1°F-0.5°C 45% 4.8 mph NE7.7 kmh NE 9.0 mph14.5 kmh 29.56 in1001.0 mb 0.00 in0.0 mm 0.00 in0.0 mm 0.00 in0.0 mm
01:10 AM 52.0°F11.1°C 31.3°F-0.4°C 45% 4.8 mph NE7.7 kmh NE 9.0 mph14.5 kmh 29.56 in1001.0 mb 0.00 in0.0 mm 0.00 in0.0 mm 0.00 in0.0 mm
01:05 AM 52.4°F11.3°C 31.1°F-0.5°C 44% 4.5 mph NE7.2 kmh NE 9.0 mph14.5 kmh 29.56 in1001.0 mb 0.00 in0.0 mm 0.00 in0.0 mm 0.00 in0.0 mm
01:00 AM 52.9°F11.6°C 30.4°F-0.9°C 42% 4.9 mph NE7.9 kmh NE 9.0 mph14.5 kmh 29.56 in1001.0 mb 0.00 in0.0 mm 0.00 in0.0 mm 0.00 in0.0 mm
12:55 AM 53.4°F11.9°C 30.3°F-0.9°C 41% 4.7 mph NE7.6 kmh NE 11.0 mph17.7 kmh 29.56 in1001.0 mb 0.00 in0.0 mm 0.00 in0.0 mm 0.00 in0.0 mm
12:50 AM 54.0°F12.2°C 29.6°F-1.3°C 39% 4.6 mph NE7.4 kmh NE 11.0 mph17.7 kmh 29.56 in1001.0 mb 0.00 in0.0 mm 0.00 in0.0 mm 0.00 in0.0 mm
12:45 AM 54.7°F12.6°C 29.6°F-1.3°C 38% 4.7 mph NE7.6 kmh NE 10.0 mph16.1 kmh 29.56 in1001.0 mb 0.00 in0.0 mm 0.00 in0.0 mm 0.00 in0.0 mm
12:40 AM 55.5°F13.1°C 28.3°F-2.1°C 35% 5.5 mph NE8.9 kmh NE 11.0 mph17.7 kmh 29.56 in1001.0 mb 0.00 in0.0 mm 0.00 in0.0 mm 0.00 in0.0 mm
12:35 AM 56.4°F13.6°C 28.4°F-2.0°C 34% 6.1 mph NE9.8 kmh NE 11.0 mph17.7 kmh 29.56 in1001.0 mb 0.00 in0.0 mm 0.00 in0.0 mm 0.00 in0.0 mm
12:30 AM 57.1°F13.9°C 28.3°F-2.1°C 33% 4.0 mph N6.4 kmh N 11.0 mph17.7 kmh 29.56 in1001.0 mb 0.00 in0.0 mm 0.00 in0.0 mm 0.00 in0.0 mm
12:25 AM 57.3°F14.1°C 28.5°F-1.9°C 33% 5.1 mph NW8.2 kmh NW 10.0 mph16.1 kmh 29.56 in1001.0 mb 0.00 in0.0 mm 0.00 in0.0 mm 0.00 in0.0 mm
12:20 AM 57.5°F14.2°C 27.9°F-2.3°C 32% 5.7 mph NW9.2 kmh NW 10.0 mph16.1 kmh 29.56 in1001.0 mb 0.00 in0.0 mm 0.00 in0.0 mm 0.00 in0.0 mm
12:15 AM 57.5°F14.2°C 27.1°F-2.7°C 31% 4.2 mph NW6.8 kmh NW 10.0 mph16.1 kmh 29.56 in1001.0 mb 0.00 in0.0 mm 0.00 in0.0 mm 0.00 in0.0 mm
12:10 AM 57.5°F14.2°C 26.3°F-3.2°C 30% 3.7 mph W6.0 kmh W 8.0 mph12.9 kmh 29.56 in1001.0 mb 0.00 in0.0 mm 0.00 in0.0 mm 0.00 in0.0 mm
12:05 AM 57.5°F14.2°C 26.3°F-3.2°C 30% 2.5 mph WSW4.0 kmh WSW 8.0 mph12.9 kmh 29.56 in1001.0 mb 0.00 in0.0 mm 0.00 in0.0 mm 0.00 in0.0 mm
12:00 AM 57.5°F14.2°C 27.1°F-2.7°C 31% 3.1 mph W5.0 kmh W 10.0 mph16.1 kmh 29.56 in1001.0 mb 0.00 in0.0 mm 0.00 in0.0 mm 0.00 in0.0 mm